createdAt,value
2019-03-31T00:00:23.231Z,40.50
2019-03-31T00:02:53.708Z,39.88
2019-03-31T00:05:23.844Z,39.30
2019-03-31T00:07:54.226Z,40.10
2019-03-31T00:10:24.550Z,38.40
2019-03-31T00:12:54.853Z,38.30
2019-03-31T00:15:25.228Z,39.38
2019-03-31T00:17:56.537Z,39.33
2019-03-31T00:20:26.733Z,39.42
2019-03-31T00:22:56.936Z,39.70
2019-03-31T00:25:27.353Z,38.58
2019-03-31T00:27:57.697Z,38.00
2019-03-31T00:30:28.260Z,37.85
2019-03-31T00:32:58.709Z,38.40
2019-03-31T00:35:28.952Z,37.75
2019-03-31T00:37:59.563Z,36.63
2019-03-31T00:40:29.699Z,36.27
2019-03-31T00:42:59.963Z,36.70
2019-03-31T00:45:30.325Z,34.87
2019-03-31T00:48:00.599Z,34.53
2019-03-31T00:50:31.016Z,34.00
2019-03-31T00:53:01.662Z,34.03
2019-03-31T00:55:31.863Z,33.97
2019-03-31T00:58:02.113Z,33.92
2019-03-31T01:00:34.557Z,33.78
2019-03-31T01:03:04.964Z,33.75
2019-03-31T01:05:35.633Z,32.63
2019-03-31T01:08:06.401Z,32.90
2019-03-31T01:10:36.631Z,37.00
2019-03-31T01:13:07.845Z,32.28
2019-03-31T01:15:38.228Z,32.90
2019-03-31T01:18:08.844Z,33.18
2019-03-31T01:20:38.956Z,34.15
2019-03-31T01:23:09.552Z,32.78
2019-03-31T01:25:40.070Z,31.60
2019-03-31T01:28:10.890Z,32.40
2019-03-31T01:30:41.255Z,32.17
2019-03-31T01:33:11.868Z,31.37
2019-03-31T01:35:42.129Z,31.70
2019-03-31T01:38:13.107Z,31.75
2019-03-31T01:40:43.536Z,34.40
2019-03-31T01:43:13.760Z,35.23
2019-03-31T01:45:43.590Z,35.03
2019-03-31T01:48:13.882Z,36.38
2019-03-31T01:50:44.007Z,34.45
2019-03-31T01:53:14.346Z,35.13
2019-03-31T01:55:44.756Z,36.42
2019-03-31T01:58:14.981Z,32.87
2019-03-31T02:00:47.011Z,30.97
2019-03-31T02:03:17.433Z,30.68
2019-03-31T02:05:47.950Z,31.30
2019-03-31T02:08:18.463Z,31.55
2019-03-31T02:10:48.817Z,30.72
2019-03-31T02:13:19.088Z,31.42
2019-03-31T02:15:49.283Z,29.47
2019-03-31T02:18:19.729Z,31.70
2019-03-31T02:20:49.954Z,30.70
2019-03-31T02:23:20.432Z,30.20
2019-03-31T02:25:50.744Z,29.25
2019-03-31T02:28:21.403Z,30.15
2019-03-31T02:30:51.961Z,29.20
2019-03-31T02:33:22.211Z,28.90
2019-03-31T02:35:52.442Z,29.05
2019-03-31T02:38:22.777Z,28.42
2019-03-31T02:40:53.063Z,27.75
2019-03-31T02:43:24.283Z,29.03
2019-03-31T02:45:54.889Z,28.60
2019-03-31T02:48:25.081Z,29.37
2019-03-31T02:50:55.614Z,29.27
2019-03-31T02:53:25.903Z,28.40
2019-03-31T02:55:57.020Z,27.85
2019-03-31T02:58:27.310Z,27.63
2019-03-31T03:00:58.350Z,28.00
2019-03-31T03:03:29.473Z,27.32
2019-03-31T03:06:01.466Z,27.17
2019-03-31T03:08:34.465Z,26.87
2019-03-31T03:11:05.718Z,27.37
2019-03-31T03:13:37.005Z,27.58
2019-03-31T03:16:09.985Z,26.70
2019-03-31T03:18:40.585Z,27.70
2019-03-31T03:21:10.749Z,27.27
2019-03-31T03:23:41.259Z,27.20
2019-03-31T03:26:11.751Z,28.15
2019-03-31T03:28:42.094Z,26.85
2019-03-31T03:31:16.117Z,29.40
2019-03-31T03:33:44.909Z,27.75
2019-03-31T03:36:15.968Z,27.37
2019-03-31T03:38:46.157Z,27.50
2019-03-31T03:41:16.712Z,27.98
2019-03-31T03:43:55.975Z,28.30
2019-03-31T03:46:18.889Z,26.95
2019-03-31T03:48:49.119Z,28.05
2019-03-31T03:51:19.593Z,27.98
2019-03-31T03:53:49.727Z,27.13
2019-03-31T03:56:20.274Z,27.37
2019-03-31T03:58:50.488Z,27.75
2019-03-31T04:01:21.535Z,28.03
2019-03-31T04:03:51.922Z,29.17
2019-03-31T04:06:22.257Z,27.93
2019-03-31T04:08:52.762Z,28.13
2019-03-31T04:11:24.273Z,29.48
2019-03-31T04:13:54.758Z,29.02
2019-03-31T04:16:25.185Z,28.12
2019-03-31T04:18:55.593Z,29.20
2019-03-31T04:21:26.725Z,28.77
2019-03-31T04:23:57.075Z,28.32
2019-03-31T04:26:27.571Z,28.25
2019-03-31T04:28:58.000Z,29.23
2019-03-31T04:31:28.629Z,28.83
2019-03-31T04:33:58.947Z,28.83
2019-03-31T04:36:29.082Z,28.75
2019-03-31T04:39:00.313Z,28.70
2019-03-31T04:41:31.206Z,27.98
2019-03-31T04:44:01.422Z,28.87
2019-03-31T04:46:31.711Z,28.83
2019-03-31T04:49:02.117Z,27.50
2019-03-31T04:51:32.314Z,26.82
2019-03-31T04:54:02.635Z,29.82
2019-03-31T04:56:33.091Z,28.83
2019-03-31T04:59:03.404Z,28.57
2019-03-31T05:01:33.881Z,27.80
2019-03-31T05:04:05.359Z,27.40
2019-03-31T05:06:36.136Z,28.83
2019-03-31T05:09:07.485Z,27.58
2019-03-31T05:11:37.688Z,27.55
2019-03-31T05:14:07.986Z,26.70
2019-03-31T05:16:38.550Z,27.27
2019-03-31T05:19:08.873Z,27.50
2019-03-31T05:21:39.430Z,26.52
2019-03-31T05:24:09.676Z,27.70
2019-03-31T05:26:39.891Z,27.33
2019-03-31T05:29:10.183Z,26.35
2019-03-31T05:31:40.552Z,25.65
2019-03-31T05:34:18.879Z,26.77
2019-03-31T05:36:42.359Z,27.45
2019-03-31T05:39:12.185Z,26.10
2019-03-31T05:41:42.375Z,25.90
2019-03-31T05:44:12.726Z,26.35
2019-03-31T05:46:43.193Z,26.45
2019-03-31T05:49:13.562Z,25.13
2019-03-31T05:51:43.941Z,25.57
2019-03-31T05:54:14.472Z,26.00
2019-03-31T05:56:44.695Z,25.02
2019-03-31T05:59:15.292Z,24.55
2019-03-31T06:01:45.492Z,25.35
2019-03-31T06:04:15.813Z,25.88
2019-03-31T06:06:46.198Z,24.05
2019-03-31T06:09:16.506Z,25.15
2019-03-31T06:11:46.613Z,24.77
2019-03-31T06:14:17.167Z,24.45
2019-03-31T06:16:47.574Z,23.83
2019-03-31T06:19:17.828Z,24.30
2019-03-31T06:21:48.227Z,24.32
2019-03-31T06:24:18.397Z,24.67
2019-03-31T06:26:48.849Z,24.15
2019-03-31T06:29:19.241Z,24.30
2019-03-31T06:31:49.680Z,24.32
2019-03-31T06:34:19.982Z,23.83
2019-03-31T06:36:50.423Z,24.27
2019-03-31T06:39:20.673Z,23.83
2019-03-31T06:41:51.115Z,23.12
2019-03-31T06:44:21.728Z,22.85
2019-03-31T06:46:51.964Z,23.90
2019-03-31T06:49:22.272Z,24.33
2019-03-31T06:51:52.811Z,24.05
2019-03-31T06:54:23.032Z,22.98
2019-03-31T06:56:53.543Z,23.50
2019-03-31T06:59:23.937Z,23.52
2019-03-31T07:01:54.169Z,22.97
2019-03-31T07:04:24.255Z,24.55
2019-03-31T07:06:54.522Z,24.05
2019-03-31T07:09:25.052Z,23.05
2019-03-31T07:11:55.263Z,23.20
2019-03-31T07:14:25.720Z,23.10
2019-03-31T07:16:55.790Z,23.60
2019-03-31T07:19:25.939Z,24.05
2019-03-31T07:21:56.349Z,22.93
2019-03-31T07:24:26.750Z,23.30
2019-03-31T07:26:57.099Z,23.35
2019-03-31T07:29:27.507Z,22.48
2019-03-31T07:31:57.947Z,22.98
2019-03-31T07:34:28.145Z,23.67
2019-03-31T07:36:58.390Z,23.35
2019-03-31T07:39:28.799Z,23.75
2019-03-31T07:41:59.655Z,23.52
2019-03-31T07:44:30.253Z,23.35
2019-03-31T07:47:00.826Z,23.05
2019-03-31T07:49:31.131Z,23.52
2019-03-31T07:52:01.387Z,23.17
2019-03-31T07:54:31.584Z,22.87
2019-03-31T07:57:01.908Z,23.35
2019-03-31T07:59:32.314Z,22.87
2019-03-31T08:02:02.551Z,22.87
2019-03-31T08:04:33.257Z,22.67
2019-03-31T08:07:03.898Z,26.07
2019-03-31T08:09:34.074Z,23.38
2019-03-31T08:12:04.394Z,23.35
2019-03-31T08:14:34.542Z,23.77
2019-03-31T08:17:05.001Z,23.07
2019-03-31T08:19:35.607Z,22.73
2019-03-31T08:22:06.035Z,23.35
2019-03-31T08:24:37.455Z,22.77
2019-03-31T08:27:08.018Z,23.22
2019-03-31T08:29:38.330Z,23.25
2019-03-31T08:32:08.405Z,23.43
2019-03-31T08:34:38.891Z,22.62
2019-03-31T08:37:09.421Z,22.95
2019-03-31T08:39:39.693Z,22.73
2019-03-31T08:42:10.327Z,22.82
2019-03-31T08:44:40.835Z,22.80
2019-03-31T08:47:11.644Z,22.73
2019-03-31T08:49:41.820Z,20.92
2019-03-31T08:52:12.215Z,21.55
2019-03-31T08:54:42.322Z,21.33
2019-03-31T08:57:12.618Z,22.00
2019-03-31T08:59:43.000Z,21.30
2019-03-31T09:02:14.538Z,20.80
2019-03-31T09:04:44.830Z,21.25
2019-03-31T09:07:15.347Z,23.85
2019-03-31T09:09:45.513Z,18.85
2019-03-31T09:12:15.853Z,18.92
2019-03-31T09:14:46.162Z,18.27
2019-03-31T09:17:16.674Z,17.63
2019-03-31T09:19:46.892Z,16.75
2019-03-31T09:22:17.441Z,15.70
2019-03-31T09:24:47.655Z,15.38
2019-03-31T09:27:17.794Z,13.98
2019-03-31T09:29:48.063Z,18.87
2019-03-31T09:32:18.401Z,14.60
2019-03-31T09:34:48.761Z,14.83
2019-03-31T09:37:19.029Z,15.63
2019-03-31T09:39:49.436Z,17.92
2019-03-31T09:42:19.826Z,20.55
2019-03-31T09:44:50.137Z,23.32
2019-03-31T09:47:20.683Z,19.48
2019-03-31T09:49:50.810Z,17.48
2019-03-31T09:52:21.171Z,17.55
2019-03-31T09:54:51.367Z,22.43
2019-03-31T09:57:21.795Z,24.05
2019-03-31T09:59:52.110Z,22.65
2019-03-31T10:02:22.563Z,24.80
2019-03-31T10:04:53.007Z,25.72
2019-03-31T10:07:23.960Z,25.90
2019-03-31T10:09:54.786Z,25.20
2019-03-31T10:12:25.025Z,25.55
2019-03-31T10:14:55.313Z,25.68
2019-03-31T10:17:25.874Z,25.17
2019-03-31T10:19:56.336Z,25.32
2019-03-31T10:22:26.663Z,25.88
2019-03-31T10:24:56.870Z,26.10
2019-03-31T10:27:27.217Z,28.27
2019-03-31T10:29:57.503Z,31.50
2019-03-31T10:32:27.708Z,30.50
2019-03-31T10:34:58.289Z,28.15
2019-03-31T10:37:28.429Z,26.10
2019-03-31T10:39:58.720Z,23.42
2019-03-31T10:42:29.099Z,22.73
2019-03-31T10:44:59.299Z,23.30
2019-03-31T10:47:29.504Z,20.88
2019-03-31T10:50:00.093Z,21.17
2019-03-31T10:52:30.576Z,22.40
2019-03-31T10:55:00.867Z,22.65
2019-03-31T10:57:31.654Z,22.93
2019-03-31T11:00:01.913Z,22.40
2019-03-31T11:02:32.341Z,21.62
2019-03-31T11:05:02.119Z,23.32
2019-03-31T11:07:32.327Z,23.50
2019-03-31T11:10:02.590Z,23.60
2019-03-31T11:12:32.934Z,23.02
2019-03-31T11:15:03.161Z,22.77
2019-03-31T11:17:33.489Z,22.90
2019-03-31T11:20:03.898Z,21.77
2019-03-31T11:22:35.490Z,22.95
2019-03-31T11:25:20.328Z,23.30
2019-03-31T11:27:39.381Z,23.40
2019-03-31T11:30:11.156Z,20.88
2019-03-31T11:32:41.465Z,20.85
2019-03-31T11:35:11.831Z,19.87
2019-03-31T11:37:42.386Z,19.48
2019-03-31T11:40:14.133Z,19.35
2019-03-31T11:42:44.408Z,19.57
2019-03-31T11:45:15.054Z,19.07
2019-03-31T11:47:45.495Z,19.17
2019-03-31T11:50:16.335Z,19.27
2019-03-31T11:52:46.680Z,19.25
2019-03-31T11:55:17.078Z,19.77
2019-03-31T11:57:47.446Z,19.42
2019-03-31T12:00:19.294Z,18.87
2019-03-31T12:02:49.998Z,19.10
2019-03-31T12:05:19.905Z,17.67
2019-03-31T12:07:50.202Z,18.60
2019-03-31T12:10:20.550Z,18.60
2019-03-31T12:12:50.974Z,18.10
2019-03-31T12:15:21.322Z,17.73
2019-03-31T12:17:51.796Z,17.95
2019-03-31T12:20:21.930Z,18.07
2019-03-31T12:22:52.286Z,18.15
2019-03-31T12:25:22.583Z,18.32
2019-03-31T12:27:52.966Z,18.43
2019-03-31T12:30:25.972Z,17.70
2019-03-31T12:32:56.271Z,18.35
2019-03-31T12:35:26.418Z,17.57
2019-03-31T12:37:57.347Z,17.55
2019-03-31T12:40:29.843Z,17.13
2019-03-31T12:43:00.224Z,17.67
2019-03-31T12:45:30.641Z,18.07
2019-03-31T12:48:01.439Z,17.40
2019-03-31T12:50:32.062Z,17.90
2019-03-31T12:53:02.351Z,17.23
2019-03-31T12:55:32.669Z,16.62
2019-03-31T12:58:02.891Z,16.23
2019-03-31T13:00:33.450Z,16.70
2019-03-31T13:03:11.145Z,16.37
2019-03-31T13:05:42.647Z,16.50
2019-03-31T13:08:13.137Z,14.78
2019-03-31T13:10:43.897Z,14.95
2019-03-31T13:13:14.014Z,14.47
2019-03-31T13:15:44.605Z,14.30
2019-03-31T13:18:14.897Z,14.28
2019-03-31T13:20:45.371Z,13.98
2019-03-31T13:23:15.921Z,13.13
2019-03-31T13:25:46.351Z,13.30
2019-03-31T13:28:16.895Z,13.78
2019-03-31T13:30:47.303Z,14.60
2019-03-31T13:33:17.507Z,14.47
2019-03-31T13:35:47.750Z,13.40
2019-03-31T13:38:17.878Z,14.60
2019-03-31T13:40:50.517Z,13.80
2019-03-31T13:43:20.184Z,15.38
2019-03-31T13:45:50.455Z,14.80
2019-03-31T13:48:20.706Z,15.55
2019-03-31T13:50:51.172Z,15.72
2019-03-31T13:53:21.563Z,17.00
2019-03-31T13:55:52.046Z,16.95
2019-03-31T13:58:23.348Z,17.65
2019-03-31T14:00:57.082Z,18.85
2019-03-31T14:03:25.789Z,19.73
2019-03-31T14:05:56.060Z,18.73
2019-03-31T14:08:26.749Z,19.32
2019-03-31T14:10:57.259Z,19.70
2019-03-31T14:13:27.487Z,20.08
2019-03-31T14:15:57.985Z,21.45
2019-03-31T14:18:28.302Z,20.37
2019-03-31T14:20:58.690Z,21.35
2019-03-31T14:23:28.955Z,21.10
2019-03-31T14:25:59.203Z,21.70
2019-03-31T14:28:29.404Z,21.95
2019-03-31T14:30:59.631Z,20.35
2019-03-31T14:33:29.897Z,20.85
2019-03-31T14:36:00.219Z,21.07
2019-03-31T14:38:40.172Z,21.05
2019-03-31T14:41:03.004Z,20.60
2019-03-31T14:43:33.577Z,20.62
2019-03-31T14:46:03.765Z,20.92
2019-03-31T14:48:34.801Z,20.20
2019-03-31T14:51:05.831Z,20.62
2019-03-31T14:53:37.057Z,21.52
2019-03-31T14:56:08.568Z,21.62
2019-03-31T14:58:39.583Z,21.12
2019-03-31T15:01:09.846Z,20.68
2019-03-31T15:03:40.083Z,21.48
2019-03-31T15:06:10.603Z,20.50
2019-03-31T15:08:53.788Z,19.00
2019-03-31T15:11:12.764Z,18.48
2019-03-31T15:13:42.917Z,17.55
2019-03-31T15:16:13.979Z,16.63
2019-03-31T15:18:44.385Z,15.00
2019-03-31T15:21:15.344Z,15.08
2019-03-31T15:23:45.853Z,15.83
2019-03-31T15:26:18.899Z,15.50
2019-03-31T15:28:50.306Z,16.05
2019-03-31T15:31:20.975Z,15.93
2019-03-31T15:33:51.536Z,16.37
2019-03-31T15:36:21.898Z,17.40
2019-03-31T15:38:52.396Z,17.07
2019-03-31T15:41:22.631Z,17.40
2019-03-31T15:43:52.935Z,17.40
2019-03-31T15:46:24.726Z,18.55
2019-03-31T15:48:55.350Z,17.57
2019-03-31T15:51:26.011Z,18.25
2019-03-31T15:53:56.318Z,18.30
2019-03-31T15:56:26.474Z,17.45
2019-03-31T15:58:56.773Z,17.67
2019-03-31T16:01:27.156Z,17.05
2019-03-31T16:03:57.416Z,16.30
2019-03-31T16:06:27.626Z,16.73
2019-03-31T16:08:58.026Z,16.17
2019-03-31T16:11:28.193Z,15.33
2019-03-31T16:13:58.418Z,14.98
2019-03-31T16:16:30.702Z,15.13
2019-03-31T16:19:00.396Z,14.50
2019-03-31T16:21:30.665Z,15.15
2019-03-31T16:24:00.895Z,16.57
2019-03-31T16:26:31.151Z,16.90
2019-03-31T16:29:01.712Z,16.73
2019-03-31T16:31:32.021Z,16.62
2019-03-31T16:34:02.248Z,16.10
2019-03-31T16:36:32.563Z,16.23
2019-03-31T16:39:02.883Z,16.00
2019-03-31T16:41:33.327Z,15.93
2019-03-31T16:44:03.706Z,15.63
2019-03-31T16:46:34.059Z,14.93
2019-03-31T16:49:04.339Z,15.45
2019-03-31T16:51:34.441Z,14.80
2019-03-31T16:54:04.718Z,15.05
2019-03-31T16:56:35.133Z,15.63
2019-03-31T16:59:05.338Z,15.68
2019-03-31T17:01:35.702Z,15.15
2019-03-31T17:04:06.147Z,14.58
2019-03-31T17:06:36.373Z,14.58
2019-03-31T17:09:08.809Z,14.70
2019-03-31T17:11:39.108Z,14.45
2019-03-31T17:14:09.225Z,13.77
2019-03-31T17:16:39.680Z,14.03
2019-03-31T17:19:09.984Z,14.15
2019-03-31T17:21:40.268Z,13.88
2019-03-31T17:24:10.494Z,13.58
2019-03-31T17:26:40.757Z,13.67
2019-03-31T17:29:11.401Z,13.90
2019-03-31T17:31:41.818Z,13.90
2019-03-31T17:34:11.913Z,14.18
2019-03-31T17:36:42.259Z,14.13
2019-03-31T17:39:12.384Z,14.03
2019-03-31T17:41:42.672Z,13.70
2019-03-31T17:44:13.375Z,13.93
2019-03-31T17:46:43.524Z,13.83
2019-03-31T17:49:13.622Z,14.77
2019-03-31T17:51:43.920Z,14.90
2019-03-31T17:54:14.452Z,14.30
2019-03-31T17:56:44.552Z,13.87
2019-03-31T17:59:14.832Z,15.35
2019-03-31T18:01:45.098Z,14.53
2019-03-31T18:04:15.312Z,14.45
2019-03-31T18:06:45.762Z,14.33
2019-03-31T18:09:15.966Z,14.80
2019-03-31T18:11:46.148Z,14.73
2019-03-31T18:14:16.399Z,14.90
2019-03-31T18:16:46.637Z,14.83
2019-03-31T18:19:17.097Z,14.83
2019-03-31T18:21:47.326Z,15.40
2019-03-31T18:24:17.549Z,15.48
2019-03-31T18:26:47.762Z,15.67
2019-03-31T18:29:18.089Z,15.53
2019-03-31T18:31:48.494Z,15.15
2019-03-31T18:34:18.805Z,15.70
2019-03-31T18:36:49.406Z,14.80
2019-03-31T18:39:19.683Z,15.25
2019-03-31T18:41:49.888Z,15.75
2019-03-31T18:44:20.297Z,15.20
2019-03-31T18:46:50.467Z,14.68
2019-03-31T18:49:20.704Z,15.50
2019-03-31T18:51:50.973Z,15.68
2019-03-31T18:54:22.776Z,15.75
2019-03-31T18:56:54.389Z,15.50
2019-03-31T18:59:25.954Z,15.10
2019-03-31T19:01:57.584Z,15.20
2019-03-31T19:04:29.584Z,15.20
2019-03-31T19:07:01.172Z,15.30
2019-03-31T19:09:32.551Z,15.70
2019-03-31T19:12:04.162Z,15.88
2019-03-31T19:14:36.654Z,17.15
2019-03-31T19:17:08.267Z,15.95
2019-03-31T19:19:39.223Z,17.17
2019-03-31T19:22:10.877Z,20.15
2019-03-31T19:24:45.800Z,17.70
2019-03-31T19:27:15.403Z,18.90
2019-03-31T19:29:46.984Z,19.17
2019-03-31T19:32:18.562Z,18.87
2019-03-31T19:34:50.066Z,19.00
2019-03-31T19:37:22.164Z,19.73
2019-03-31T19:39:53.652Z,18.87
2019-03-31T19:42:25.152Z,19.57
2019-03-31T19:44:56.789Z,19.42
2019-03-31T19:47:28.237Z,18.90
2019-03-31T19:49:59.903Z,19.20
2019-03-31T19:52:31.398Z,19.40
2019-03-31T19:55:03.072Z,19.60
2019-03-31T19:57:34.717Z,19.98
2019-03-31T20:00:07.889Z,18.77
2019-03-31T20:02:39.435Z,18.53
2019-03-31T20:05:11.152Z,18.80
2019-03-31T20:07:43.334Z,18.00
2019-03-31T20:10:15.141Z,19.10
2019-03-31T20:12:47.059Z,18.62
2019-03-31T20:15:18.580Z,17.80
2019-03-31T20:17:50.349Z,18.67
2019-03-31T20:20:21.893Z,18.73
2019-03-31T20:22:53.258Z,19.00
2019-03-31T20:25:24.848Z,19.92
2019-03-31T20:27:59.452Z,19.10
2019-03-31T20:30:29.234Z,19.23
2019-03-31T20:33:00.829Z,20.02
2019-03-31T20:35:32.491Z,19.48
2019-03-31T20:38:03.932Z,19.98
2019-03-31T20:40:35.785Z,23.15
2019-03-31T20:43:07.307Z,22.02
2019-03-31T20:45:37.666Z,22.62
2019-03-31T20:48:07.980Z,22.10
2019-03-31T20:50:38.198Z,22.33
2019-03-31T20:53:08.636Z,24.12
2019-03-31T20:55:39.214Z,23.20
2019-03-31T20:58:09.552Z,23.30
2019-03-31T21:00:39.706Z,22.40
2019-03-31T21:03:09.998Z,21.62
2019-03-31T21:05:40.225Z,21.45
2019-03-31T21:08:10.759Z,21.70
2019-03-31T21:10:40.917Z,23.47
2019-03-31T21:13:11.495Z,23.15
2019-03-31T21:15:41.816Z,23.62
2019-03-31T21:18:12.061Z,23.80
2019-03-31T21:20:42.604Z,24.52
2019-03-31T21:23:12.995Z,24.18
2019-03-31T21:25:43.184Z,24.45
2019-03-31T21:28:13.482Z,23.80
2019-03-31T21:30:43.705Z,23.80
2019-03-31T21:33:14.019Z,23.67
2019-03-31T21:35:44.321Z,23.93
2019-03-31T21:38:14.479Z,23.77
2019-03-31T21:40:44.755Z,23.55
2019-03-31T21:43:15.129Z,32.13
2019-03-31T21:45:46.340Z,26.85
2019-03-31T21:48:17.281Z,24.92
2019-03-31T21:50:47.758Z,39.98
2019-03-31T21:53:18.162Z,39.75
2019-03-31T21:55:48.485Z,39.00
2019-03-31T21:58:18.700Z,39.58
2019-03-31T22:00:50.182Z,38.42
2019-03-31T22:03:20.881Z,37.48
2019-03-31T22:05:51.370Z,35.43
2019-03-31T22:08:21.774Z,35.78
2019-03-31T22:10:52.310Z,34.40
2019-03-31T22:13:22.503Z,30.83
2019-03-31T22:15:52.871Z,28.07
2019-03-31T22:18:23.347Z,31.20
2019-03-31T22:20:53.564Z,30.40
2019-03-31T22:23:23.933Z,30.60
2019-03-31T22:25:54.150Z,30.30
2019-03-31T22:28:24.457Z,30.17
2019-03-31T22:30:54.945Z,29.40
2019-03-31T22:33:25.568Z,30.37
2019-03-31T22:35:56.938Z,28.42
2019-03-31T22:38:27.302Z,28.90
2019-03-31T22:40:57.565Z,28.55
2019-03-31T22:43:27.830Z,26.52
2019-03-31T22:45:58.262Z,24.98
2019-03-31T22:48:28.615Z,25.80
2019-03-31T22:50:59.073Z,26.02
2019-03-31T22:53:29.356Z,26.12
2019-03-31T22:55:59.585Z,26.73
2019-03-31T22:58:29.843Z,25.37
2019-03-31T23:01:00.162Z,25.72
2019-03-31T23:03:30.617Z,25.52
2019-03-31T23:06:00.895Z,28.02
2019-03-31T23:08:31.439Z,29.05
2019-03-31T23:11:01.611Z,30.30
2019-03-31T23:13:32.124Z,28.52
2019-03-31T23:16:02.411Z,26.57
2019-03-31T23:18:33.086Z,27.65
2019-03-31T23:21:03.184Z,27.67
2019-03-31T23:23:33.592Z,28.92
2019-03-31T23:26:03.995Z,30.45
2019-03-31T23:28:34.322Z,33.67
2019-03-31T23:31:04.478Z,33.35
2019-03-31T23:33:35.019Z,36.03
2019-03-31T23:36:05.518Z,36.90
2019-03-31T23:38:35.618Z,35.03
2019-03-31T23:41:06.913Z,33.92
2019-03-31T23:43:37.240Z,33.65
2019-03-31T23:46:07.510Z,34.30
2019-03-31T23:48:37.627Z,29.63
2019-03-31T23:51:07.824Z,28.60
2019-03-31T23:53:38.347Z,28.05
2019-03-31T23:56:08.643Z,27.55
2019-03-31T23:58:39.205Z,27.75
